sensor_id;sensor_type;location;lat;lon;timestamp;P1;durP1;ratioP1;P2;durP2;ratioP2
59314;SDS011;46521;50.160;20.802;2023-04-01T00:11:19;14.98;;;8.83;;
59314;SDS011;46521;50.160;20.802;2023-04-01T00:21:20;16.15;;;9.00;;
59314;SDS011;46521;50.160;20.802;2023-04-01T00:31:23;15.60;;;7.67;;
59314;SDS011;46521;50.160;20.802;2023-04-01T00:41:24;13.25;;;6.60;;
59314;SDS011;46521;50.160;20.802;2023-04-01T00:51:27;8.95;;;4.45;;
59314;SDS011;46521;50.160;20.802;2023-04-01T01:01:31;6.75;;;2.55;;
59314;SDS011;46521;50.160;20.802;2023-04-01T01:11:35;5.35;;;2.05;;
59314;SDS011;46521;50.160;20.802;2023-04-01T01:42:08;5.50;;;1.93;;
59314;SDS011;46521;50.160;20.802;2023-04-01T01:52:13;4.83;;;1.50;;
59314;SDS011;46521;50.160;20.802;2023-04-01T02:02:15;5.43;;;2.00;;
59314;SDS011;46521;50.160;20.802;2023-04-01T02:12:18;8.13;;;2.23;;
59314;SDS011;46521;50.160;20.802;2023-04-01T02:22:29;6.55;;;2.25;;
59314;SDS011;46521;50.160;20.802;2023-04-01T02:32:38;7.25;;;2.00;;
59314;SDS011;46521;50.160;20.802;2023-04-01T02:42:40;6.50;;;2.23;;
59314;SDS011;46521;50.160;20.802;2023-04-01T02:52:42;7.17;;;2.50;;
59314;SDS011;46521;50.160;20.802;2023-04-01T03:02:44;6.00;;;2.65;;
59314;SDS011;46521;50.160;20.802;2023-04-01T03:12:45;6.63;;;2.50;;
59314;SDS011;46521;50.160;20.802;2023-04-01T03:22:47;7.20;;;2.50;;
59314;SDS011;46521;50.160;20.802;2023-04-01T03:32:48;5.95;;;2.00;;
59314;SDS011;46521;50.160;20.802;2023-04-01T03:42:50;5.67;;;2.20;;
59314;SDS011;46521;50.160;20.802;2023-04-01T03:52:52;6.60;;;2.20;;
59314;SDS011;46521;50.160;20.802;2023-04-01T04:02:53;6.35;;;2.40;;
59314;SDS011;46521;50.160;20.802;2023-04-01T04:12:57;6.43;;;2.38;;
59314;SDS011;46521;50.160;20.802;2023-04-01T04:23:00;9.50;;;2.53;;
59314;SDS011;46521;50.160;20.802;2023-04-01T04:33:01;7.50;;;2.10;;
59314;SDS011;46521;50.160;20.802;2023-04-01T04:43:03;5.90;;;2.30;;
59314;SDS011;46521;50.160;20.802;2023-04-01T04:53:05;6.50;;;2.30;;
59314;SDS011;46521;50.160;20.802;2023-04-01T05:03:06;7.53;;;2.38;;
59314;SDS011;46521;50.160;20.802;2023-04-01T05:13:09;7.25;;;2.60;;
59314;SDS011;46521;50.160;20.802;2023-04-01T05:23:10;7.43;;;2.40;;
59314;SDS011;46521;50.160;20.802;2023-04-01T05:33:13;5.85;;;1.95;;
59314;SDS011;46521;50.160;20.802;2023-04-01T05:43:14;6.60;;;2.10;;
59314;SDS011;46521;50.160;20.802;2023-04-01T05:53:16;5.23;;;2.37;;
59314;SDS011;46521;50.160;20.802;2023-04-01T06:03:17;5.87;;;2.03;;
59314;SDS011;46521;50.160;20.802;2023-04-01T06:24:05;6.25;;;2.38;;
59314;SDS011;46521;50.160;20.802;2023-04-01T06:44:58;8.03;;;2.37;;
59314;SDS011;46521;50.160;20.802;2023-04-01T07:05:11;6.10;;;2.40;;
59314;SDS011;46521;50.160;20.802;2023-04-01T07:25:21;5.67;;;2.20;;
59314;SDS011;46521;50.160;20.802;2023-04-01T07:35:30;5.35;;;1.93;;
59314;SDS011;46521;50.160;20.802;2023-04-01T07:56:11;7.43;;;2.07;;
59314;SDS011;46521;50.160;20.802;2023-04-01T08:16:23;6.67;;;2.53;;
59314;SDS011;46521;50.160;20.802;2023-04-01T08:26:35;8.77;;;3.30;;
59314;SDS011;46521;50.160;20.802;2023-04-01T08:36:46;6.63;;;2.30;;
59314;SDS011;46521;50.160;20.802;2023-04-01T09:28:42;10.00;;;2.40;;
59314;SDS011;46521;50.160;20.802;2023-04-01T09:59:15;6.50;;;2.40;;
59314;SDS011;46521;50.160;20.802;2023-04-01T10:09:51;7.80;;;3.15;;
59314;SDS011;46521;50.160;20.802;2023-04-01T11:01:22;6.78;;;2.60;;
59314;SDS011;46521;50.160;20.802;2023-04-01T11:42:43;7.33;;;3.70;;
59314;SDS011;46521;50.160;20.802;2023-04-01T12:44:26;6.20;;;2.37;;
59314;SDS011;46521;50.160;20.802;2023-04-01T13:15:26;4.73;;;2.43;;
59314;SDS011;46521;50.160;20.802;2023-04-01T13:25:39;5.60;;;2.97;;
59314;SDS011;46521;50.160;20.802;2023-04-01T13:35:46;7.45;;;3.30;;
59314;SDS011;46521;50.160;20.802;2023-04-01T13:46:04;3.40;;;1.60;;
59314;SDS011;46521;50.160;20.802;2023-04-01T14:47:51;9.13;;;5.00;;
59314;SDS011;46521;50.160;20.802;2023-04-01T14:58:07;7.13;;;3.57;;
59314;SDS011;46521;50.160;20.802;2023-04-01T15:49:07;5.80;;;2.50;;
59314;SDS011;46521;50.160;20.802;2023-04-01T16:30:32;8.50;;;3.60;;
59314;SDS011;46521;50.160;20.802;2023-04-01T16:51:04;23.15;;;13.00;;
59314;SDS011;46521;50.160;20.802;2023-04-01T17:01:16;12.53;;;7.67;;
59314;SDS011;46521;50.160;20.802;2023-04-01T17:11:36;6.70;;;2.60;;
59314;SDS011;46521;50.160;20.802;2023-04-01T17:32:03;7.90;;;3.07;;
59314;SDS011;46521;50.160;20.802;2023-04-01T18:24:19;12.35;;;6.05;;
59314;SDS011;46521;50.160;20.802;2023-04-01T18:35:01;10.80;;;6.23;;
59314;SDS011;46521;50.160;20.802;2023-04-01T18:45:26;11.40;;;5.83;;
59314;SDS011;46521;50.160;20.802;2023-04-01T18:55:39;13.50;;;6.75;;
59314;SDS011;46521;50.160;20.802;2023-04-01T19:05:44;12.53;;;6.90;;
59314;SDS011;46521;50.160;20.802;2023-04-01T19:26:10;12.60;;;6.90;;
59314;SDS011;46521;50.160;20.802;2023-04-01T19:56:47;13.80;;;7.60;;
59314;SDS011;46521;50.160;20.802;2023-04-01T20:07:16;15.88;;;9.10;;
59314;SDS011;46521;50.160;20.802;2023-04-01T20:27:38;17.23;;;9.53;;
59314;SDS011;46521;50.160;20.802;2023-04-01T21:09:06;17.57;;;11.30;;
59314;SDS011;46521;50.160;20.802;2023-04-01T21:19:40;20.80;;;12.40;;
59314;SDS011;46521;50.160;20.802;2023-04-01T22:10:40;18.15;;;11.35;;
59314;SDS011;46521;50.160;20.802;2023-04-01T22:20:53;17.40;;;11.53;;
59314;SDS011;46521;50.160;20.802;2023-04-01T22:31:05;19.70;;;11.60;;
59314;SDS011;46521;50.160;20.802;2023-04-01T22:41:17;15.55;;;9.15;;
59314;SDS011;46521;50.160;20.802;2023-04-01T22:52:03;16.40;;;9.90;;
59314;SDS011;46521;50.160;20.802;2023-04-01T23:02:11;16.87;;;10.70;;
59314;SDS011;46521;50.160;20.802;2023-04-01T23:12:19;15.93;;;9.55;;
59314;SDS011;46521;50.160;20.802;2023-04-01T23:22:31;15.63;;;10.37;;
59314;SDS011;46521;50.160;20.802;2023-04-01T23:32:39;15.20;;;9.00;;
59314;SDS011;46521;50.160;20.802;2023-04-01T23:42:41;13.57;;;8.93;;
